Jean Sagal

Scout - Universidad de Chile
22 Feb 2028
Dienstag
Verarbeitung

Persönlichkeit

Anpassungsfähigkeit (8) Ehrgeiz (10) Kontroverse (3) Loyalität (3) Druck (6) Professionalität (16) Fairness (10) Temperament (15)

Profil

Trainerstil Demokratisch
Lizenz Kontinentale B
Entschlossenheit 9
Menschenführung 6
Motivation 7
Disziplin 13
Arbeitszufriedenheit
100%
Ermüdung
0%
Rolle Scout
Gehalt 82.4K p/W
Vertrag 14.03.2029

Leistung

Verhalten Gut
Trainingseffektivität
46%
Spielerentwicklung
60%
Verletzungsprävention
45%
Taktische Umsetzung
55%

Letzte Ereignisse

Nahm an einer Scouting-Besprechung teil jetzt
Nahm an einer Scouting-Besprechung teil 7T her
Empfahl ein Transferziel 7T her
Empfahl ein Transferziel 7T her
Spiel beobachtet 7T her
Empfahl ein Transferziel 14T her
Spiel beobachtet 14T her
Geburtstag 14T her

Aktuell beobachtet

107
Spieler Verein Status Fähigkeit Vertrauen Beobachtet Zuletzt beobachtet Letzte Stimme
Pablo Aránguiz Union Espanola Aktiv 120 / 111 72% 1 01.06.2027 Befürworten
Lewis Morgan SuperSport United Aktiv 132 / 126 40% 1 31.05.2027 -
Keagan Tau Ajax Cape Town Aktiv 89 / 101 40% 2 29.05.2027 -
Ernie Weaver AFC Wimbledon Aktiv 112 / 117 40% 2 29.05.2027 -
Jan Bürger Gillingham Aktiv 107 / 123 40% 2 29.05.2027 -
Josh King Chelsea Aktiv 134 / 138 40% 4 28.05.2027 -
Caleb Yirenkyi Coventry City Aktiv 129 / 148 40% 4 28.05.2027 -
Percy Jali Free State Stars Aktiv 104 / 107 40% 5 26.05.2027 -
Juan Giménez Celta Aktiv 124 / 124 40% 4 25.05.2027 -
David Valencia Alianza Petrolera Aktiv 125 / 128 40% 1 25.05.2027 -
Quinten Timber Crystal Palace Aktiv 160 / 148 40% 4 23.05.2027 -
Ryan Sessegnon Fulham Aktiv 145 / 146 40% 2 23.05.2027 -
Toby Collyer West Bromwich Albion Aktiv 133 / 135 40% 2 23.05.2027 -
Zane Albarus Cambridge United Aktiv 104 / 102 40% 1 21.05.2027 -
Juan Mosquera Sheffield Wednesday Aktiv 121 / 125 40% 2 19.05.2027 -
Alessandro Buongiorno Sassuolo Aktiv 156 / 157 40% 2 19.05.2027 -
Milan van Ewijk Mansfield Town Aktiv 140 / 134 40% 1 19.05.2027 -
Cheveyo Tsawa Club Brugge Aktiv 124 / 125 40% 2 18.05.2027 -
Daniel Vernattus Metalist Aktiv 81 / 94 40% 4 18.05.2027 -
Luke Baartman ES Mostaganem Aktiv 106 / 118 40% 3 18.05.2027 -
Leandro Martins Benfica Aktiv 84 / 102 40% 2 18.05.2027 -
Darlvin Yeboah Bechem United Aktiv 83 / 87 40% 1 18.05.2027 -
Yojan Garcés America de Cali Aktiv 117 / 119 40% 1 18.05.2027 -
Martim Cunha Porto Aktiv 98 / 103 40% 2 17.05.2027 -
Yehor Yarmoliuk Brentford Aktiv 142 / 155 40% 2 14.05.2027 -
Mandla Erasmus SuperSport United Aktiv 117 / 121 40% 2 14.05.2027 -
Tiago Freitas Benfica Aktiv 102 / 120 40% 1 13.05.2027 -
Fletcher Holman Swindon Town Aktiv 92 / 94 40% 3 11.05.2027 -
Kauã Elias Anderlecht Aktiv 144 / 129 40% 3 11.05.2027 -
Leo Castledine Middlesbrough Aktiv 121 / 140 40% 1 10.05.2027 -
Lwanda Mbanjwa Maritzburg United Aktiv 95 / 88 40% 1 10.05.2027 -
Dilan Godoy Vélez Aktiv 111 / 115 40% 1 10.05.2027 -
Mateus Mané Manchester United Aktiv 128 / 138 40% 2 08.05.2027 -
Ben Ahmed Kohili Paradou Aktiv 98 / 111 40% 1 08.05.2027 -
Markus Jensen Nacional Aktiv 115 / 106 40% 1 08.05.2027 -
Lorenzo De Leo Renate Aktiv 103 / 109 40% 2 07.05.2027 -
Iwan Morgan Grimsby Town Aktiv 120 / 109 40% 6 06.05.2027 -
Matvii Ponomarenko Dynamo Kyiv Aktiv 116 / 124 40% 2 05.05.2027 -
Leif Davis Ipswich Town Aktiv 128 / 135 40% 2 05.05.2027 -
Amaury Morales Pumas UNAM Aktiv 115 / 117 40% 1 05.05.2027 -
Federico Serra Arezzo Aktiv 94 / 94 40% 1 05.05.2027 -
Juan David Delgado Chernihiv Aktiv 84 / 87 40% 1 03.05.2027 -
Juanlu Bournemouth Aktiv 146 / 144 40% 1 02.05.2027 -
Derry Murkin Derby County Aktiv 124 / 119 40% 1 02.05.2027 -
Baba N'Diaye Chelyabinsk Aktiv 81 / 95 40% 2 30.04.2027 -
Matías Gómez Granada Aktiv 113 / 115 40% 2 30.04.2027 -
Hazeem Bakre Crawley Town Aktiv 90 / 94 40% 1 27.04.2027 -
David Ozoh Derby County Aktiv 113 / 135 40% 3 26.04.2027 -
Shea Charles Southampton Aktiv 146 / 140 40% 2 25.04.2027 -
Luke McNally Bristol City Aktiv 139 / 124 40% 1 25.04.2027 -
Oliver Skipp Leicester City Aktiv 142 / 126 40% 1 24.04.2027 -
Di'Shon Bernard Sheffield Wednesday Aktiv 129 / 116 40% 1 24.04.2027 -
Alagie Wally Veres Aktiv 86 / 93 40% 2 20.04.2027 -
Tiziano Dornell Danubio Aktiv 120 / 124 40% 1 19.04.2027 -
Aidan Morris Middlesbrough Aktiv 129 / 131 40% 2 18.04.2027 -
Joel McGregor Swindon Town Aktiv 83 / 102 40% 2 16.04.2027 -
Dylan Lawlor Cardiff City Aktiv 104 / 123 40% 2 16.04.2027 -
Jofre Torrents Ajax Aktiv 132 / 126 40% 3 14.04.2027 -
Christos Mouzakitis Hull City Aktiv 125 / 132 40% 2 13.04.2027 -
Dramane Kamagaté USM Alger Aktiv 108 / 107 40% 2 13.04.2027 -
Riley Owen Trento Aktiv 110 / 113 40% 1 11.04.2027 -
Fuzy Taylor Medeama Aktiv 71 / 81 40% 1 11.04.2027 -
Florentino Luís Ipswich Town Aktiv 149 / 134 40% 1 09.04.2027 -
Gonçalo Oliveira Benfica Aktiv 118 / 108 40% 1 09.04.2027 -
Sayed Abu Farchi Maccabi Tel Aviv Aktiv 129 / 121 40% 2 05.04.2027 -
Bosun Lawal Stoke City Aktiv 118 / 122 40% 1 04.04.2027 -
Adam Wharton Crystal Palace Aktiv 162 / 153 40% 1 04.04.2027 -
Will Lankshear Middlesbrough Aktiv 134 / 130 40% 1 03.04.2027 -
Sule John US Forces Armees Aktiv 70 / 71 40% 2 29.03.2027 -
André Wolverhampton Aktiv 154 / 146 40% 1 29.03.2027 -
Thomas Waddingham Portsmouth Aktiv 101 / 108 40% 1 29.03.2027 -
Nathan Collins Brentford Aktiv 151 / 151 40% 1 26.03.2027 -
Murillo Nottingham Forest Aktiv 148 / 158 40% 1 25.03.2027 -
Will Fish Cardiff City Aktiv 116 / 117 40% 1 24.03.2027 -
Teden Mengi Luton Town Aktiv 127 / 124 40% 1 24.03.2027 -
Christ Inao Oulaï Fiorentina Aktiv 145 / 145 40% 1 20.03.2027 -
Adrien Truffert Bournemouth Aktiv 149 / 142 40% 1 18.03.2027 -
Dom Ballard Leyton Orient Aktiv 121 / 126 40% 1 17.03.2027 -
Kazunari Kita Real Sociedad Aktiv 96 / 103 40% 2 12.03.2027 -
Pape Diong Westerlo Aktiv 118 / 119 40% 1 11.03.2027 -
Davide Bartesaghi AC Milan Aktiv 130 / 142 40% 1 09.03.2027 -
Joaquin Seys Club Brugge Aktiv 134 / 138 40% 1 08.03.2027 -
Gustavo Ferreira Benfica Aktiv 88 / 81 40% 1 06.03.2027 -
Víctor Guzmán Sporting CP Aktiv 86 / 103 40% 1 06.03.2027 -
Godbless Ayeke AS Korofina Aktiv 66 / 83 40% 1 02.03.2027 -
Jorge Broun Aktiv 121 / 123 69% 1 01.12.2026 Befürworten
Luka Jović AEK Aktiv 126 / 130 40% 1 30.11.2026 -
Fiete Arp OB Aktiv 115 / 126 40% 1 30.11.2026 -
Lucas Souto Defensa y Justicia Aktiv 124 / 128 40% 2 25.11.2026 -
Nicolás Tripichio San Lorenzo Aktiv 126 / 123 40% 1 25.11.2026 -
Atsuki Ito Bolton Wanderers Aktiv 135 / 120 40% 1 22.11.2026 -
Emanuel Mammana Vélez Aktiv 131 / 131 40% 1 22.11.2026 -
Agustín Cardozo Lanús Aktiv 130 / 126 40% 1 22.11.2026 -
Alexander Díaz Deportivo Riestra Verloren 122 / 121 40% 2 15.11.2026 -
Luca Martínez Dupuy Godoy Cruz Aktiv 113 / 115 40% 2 09.11.2026 -
Shahriar Dejagah Tractor Aktiv 137 / 121 40% 1 08.11.2026 -
Misael Sosa Godoy Cruz Aktiv 108 / 117 40% 1 03.11.2026 -
Agustín Módica Gimnasia y Esgrima Aktiv 119 / 119 40% 1 03.11.2026 -
Ramiro Ruiz Rodríguez Atlético Tucumán Aktiv 117 / 117 40% 1 02.11.2026 -
Ignacio Rodríguez Racing Club Aktiv 119 / 123 40% 1 08.10.2026 -
Rodrigo Herrera Newell's Old Boys Aktiv 123 / 117 40% 1 08.10.2026 -
Franco Ibarra Rosario Central Aktiv 121 / 133 40% 1 08.10.2026 -
Andrés Cubas Vancouver Whitecaps Aktiv 130 / 122 40% 1 15.09.2026 -
Jordan Lotomba Bloemfontein Celtic Aktiv 126 / 126 40% 1 15.09.2026 -
Obinna Nwobodo FC Cincinnati Aktiv 135 / 131 40% 1 11.09.2026 -
Karim Konaté Red Bull Salzburg Aktiv 142 / 140 40% 1 01.08.2026 -
Takuma Asano Sanfrecce Hiroshima Aktiv 146 / 126 40% 1 01.08.2026 -